sensor_id;sensor_type;location;lat;lon;timestamp;pressure;altitude;pressure_sealevel;temperature;humidity
19600;BME280;9947;57.722;12.012;2023-11-19T00:01:03;101424.56;;;-2.60;100.00
19600;BME280;9947;57.722;12.012;2023-11-19T00:03:32;101419.16;;;-2.52;100.00
19600;BME280;9947;57.722;12.012;2023-11-19T00:06:00;101409.38;;;-2.47;100.00
19600;BME280;9947;57.722;12.012;2023-11-19T00:08:32;101400.59;;;-2.51;100.00
19600;BME280;9947;57.722;12.012;2023-11-19T00:11:00;101404.13;;;-2.50;100.00
19600;BME280;9947;57.722;12.012;2023-11-19T00:13:28;101399.72;;;-2.51;100.00
19600;BME280;9947;57.722;12.012;2023-11-19T00:15:58;101389.94;;;-2.44;100.00
19600;BME280;9947;57.722;12.012;2023-11-19T00:18:26;101385.47;;;-2.41;100.00
19600;BME280;9947;57.722;12.012;2023-11-19T00:20:53;101379.25;;;-2.38;100.00
19600;BME280;9947;57.722;12.012;2023-11-19T00:23:21;101379.19;;;-2.31;100.00
19600;BME280;9947;57.722;12.012;2023-11-19T00:25:49;101365.03;;;-2.30;100.00
19600;BME280;9947;57.722;12.012;2023-11-19T00:28:16;101360.44;;;-2.19;100.00
19600;BME280;9947;57.722;12.012;2023-11-19T00:30:44;101342.66;;;-2.10;100.00
19600;BME280;9947;57.722;12.012;2023-11-19T00:33:13;101343.31;;;-1.95;100.00
19600;BME280;9947;57.722;12.012;2023-11-19T00:35:41;101330.94;;;-1.94;100.00
19600;BME280;9947;57.722;12.012;2023-11-19T00:38:09;101320.25;;;-1.90;100.00
19600;BME280;9947;57.722;12.012;2023-11-19T00:40:42;101310.44;;;-1.83;100.00
19600;BME280;9947;57.722;12.012;2023-11-19T00:43:09;101304.22;;;-1.80;100.00
19600;BME280;9947;57.722;12.012;2023-11-19T00:45:38;101300.53;;;-1.72;100.00
19600;BME280;9947;57.722;12.012;2023-11-19T00:48:06;101291.66;;;-1.69;100.00
19600;BME280;9947;57.722;12.012;2023-11-19T00:50:38;101285.31;;;-1.61;100.00
19600;BME280;9947;57.722;12.012;2023-11-19T00:53:10;101278.16;;;-1.57;100.00
19600;BME280;9947;57.722;12.012;2023-11-19T00:55:40;101261.28;;;-1.51;100.00
19600;BME280;9947;57.722;12.012;2023-11-19T00:58:08;101263.94;;;-1.51;100.00
19600;BME280;9947;57.722;12.012;2023-11-19T01:00:36;101250.66;;;-1.50;100.00
19600;BME280;9947;57.722;12.012;2023-11-19T01:03:17;101240.94;;;-1.49;100.00
19600;BME280;9947;57.722;12.012;2023-11-19T01:05:49;101234.75;;;-1.50;100.00
19600;BME280;9947;57.722;12.012;2023-11-19T01:08:19;101222.38;;;-1.49;100.00
19600;BME280;9947;57.722;12.012;2023-11-19T01:10:50;101217.91;;;-1.47;100.00
19600;BME280;9947;57.722;12.012;2023-11-19T01:13:18;101208.16;;;-1.47;100.00
19600;BME280;9947;57.722;12.012;2023-11-19T01:15:45;101209.81;;;-1.41;100.00
19600;BME280;9947;57.722;12.012;2023-11-19T01:18:17;101200.06;;;-1.39;100.00
19600;BME280;9947;57.722;12.012;2023-11-19T01:20:46;101187.59;;;-1.36;100.00
19600;BME280;9947;57.722;12.012;2023-11-19T01:23:15;101177.00;;;-1.36;100.00
19600;BME280;9947;57.722;12.012;2023-11-19T01:25:42;101173.38;;;-1.30;100.00
19600;BME280;9947;57.722;12.012;2023-11-19T01:28:12;101160.94;;;-1.28;100.00
19600;BME280;9947;57.722;12.012;2023-11-19T01:30:40;101153.69;;;-1.20;100.00
19600;BME280;9947;57.722;12.012;2023-11-19T01:33:07;101146.41;;;-1.12;100.00
19600;BME280;9947;57.722;12.012;2023-11-19T01:35:36;101135.72;;;-1.09;100.00
19600;BME280;9947;57.722;12.012;2023-11-19T01:38:04;101127.66;;;-1.03;100.00
19600;BME280;9947;57.722;12.012;2023-11-19T01:40:38;101119.47;;;-0.94;100.00
19600;BME280;9947;57.722;12.012;2023-11-19T01:43:05;101115.06;;;-0.95;100.00
19600;BME280;9947;57.722;12.012;2023-11-19T01:45:37;101106.09;;;-0.89;100.00
19600;BME280;9947;57.722;12.012;2023-11-19T01:48:06;101099.78;;;-0.85;100.00
19600;BME280;9947;57.722;12.012;2023-11-19T01:50:37;101095.56;;;-0.92;100.00
19600;BME280;9947;57.722;12.012;2023-11-19T01:53:07;101088.19;;;-0.81;100.00
19600;BME280;9947;57.722;12.012;2023-11-19T01:55:35;101082.00;;;-0.81;100.00
19600;BME280;9947;57.722;12.012;2023-11-19T01:58:03;101081.94;;;-0.78;100.00
19600;BME280;9947;57.722;12.012;2023-11-19T02:00:33;101065.94;;;-0.75;100.00
19600;BME280;9947;57.722;12.012;2023-11-19T02:03:00;101058.81;;;-0.73;100.00
19600;BME280;9947;57.722;12.012;2023-11-19T02:05:29;101045.53;;;-0.73;100.00
19600;BME280;9947;57.722;12.012;2023-11-19T02:08:00;101050.94;;;-0.76;100.00
19600;BME280;9947;57.722;12.012;2023-11-19T02:10:30;101035.06;;;-0.78;100.00
19600;BME280;9947;57.722;12.012;2023-11-19T02:12:58;101030.75;;;-0.83;100.00
19600;BME280;9947;57.722;12.012;2023-11-19T02:15:28;101031.44;;;-0.75;100.00
19600;BME280;9947;57.722;12.012;2023-11-19T02:17:55;101020.75;;;-0.72;100.00
19600;BME280;9947;57.722;12.012;2023-11-19T02:20:23;101011.22;;;-0.81;100.00
19600;BME280;9947;57.722;12.012;2023-11-19T02:22:52;101003.25;;;-0.81;100.00
19600;BME280;9947;57.722;12.012;2023-11-19T02:25:25;100987.28;;;-0.78;100.00
19600;BME280;9947;57.722;12.012;2023-11-19T02:28:00;100980.19;;;-0.77;100.00
19600;BME280;9947;57.722;12.012;2023-11-19T02:30:30;100975.88;;;-0.83;100.00
19600;BME280;9947;57.722;12.012;2023-11-19T02:33:00;100972.41;;;-0.85;100.00
19600;BME280;9947;57.722;12.012;2023-11-19T02:35:32;100963.47;;;-0.82;100.00
19600;BME280;9947;57.722;12.012;2023-11-19T02:38:00;100957.34;;;-0.84;100.00
19600;BME280;9947;57.722;12.012;2023-11-19T02:40:29;100943.38;;;-0.91;100.00
19600;BME280;9947;57.722;12.012;2023-11-19T02:42:59;100943.97;;;-0.81;100.00
19600;BME280;9947;57.722;12.012;2023-11-19T02:45:26;100937.84;;;-0.83;100.00
19600;BME280;9947;57.722;12.012;2023-11-19T02:47:58;100929.97;;;-0.86;100.00
19600;BME280;9947;57.722;12.012;2023-11-19T02:50:27;100915.75;;;-0.84;100.00
19600;BME280;9947;57.722;12.012;2023-11-19T02:52:57;100921.91;;;-0.83;100.00
19600;BME280;9947;57.722;12.012;2023-11-19T02:55:27;100904.22;;;-0.83;100.00
19600;BME280;9947;57.722;12.012;2023-11-19T02:58:01;100903.53;;;-0.89;100.00
19600;BME280;9947;57.722;12.012;2023-11-19T03:00:34;100885.94;;;-0.94;100.00
19600;BME280;9947;57.722;12.012;2023-11-19T03:03:03;100887.72;;;-0.94;100.00
19600;BME280;9947;57.722;12.012;2023-11-19T03:05:43;100888.56;;;-0.92;100.00
19600;BME280;9947;57.722;12.012;2023-11-19T03:08:12;100878.91;;;-0.95;100.00
19600;BME280;9947;57.722;12.012;2023-11-19T03:10:39;100890.41;;;-0.96;100.00
19600;BME280;9947;57.722;12.012;2023-11-19T03:13:11;100875.38;;;-0.95;100.00
19600;BME280;9947;57.722;12.012;2023-11-19T03:15:39;100876.25;;;-0.95;100.00
19600;BME280;9947;57.722;12.012;2023-11-19T03:18:07;100866.44;;;-0.93;100.00
19600;BME280;9947;57.722;12.012;2023-11-19T03:20:34;100858.53;;;-0.94;100.00
19600;BME280;9947;57.722;12.012;2023-11-19T03:23:02;100857.41;;;-0.85;100.00
19600;BME280;9947;57.722;12.012;2023-11-19T03:25:33;100846.53;;;-0.76;100.00
19600;BME280;9947;57.722;12.012;2023-11-19T03:28:02;100837.78;;;-0.80;100.00
19600;BME280;9947;57.722;12.012;2023-11-19T03:30:30;100843.88;;;-0.76;100.00
19600;BME280;9947;57.722;12.012;2023-11-19T03:33:01;100840.50;;;-0.83;100.00
19600;BME280;9947;57.722;12.012;2023-11-19T03:35:32;100833.56;;;-0.87;100.00
19600;BME280;9947;57.722;12.012;2023-11-19T03:37:59;100830.13;;;-0.90;100.00
19600;BME280;9947;57.722;12.012;2023-11-19T03:40:27;100830.16;;;-0.92;100.00
19600;BME280;9947;57.722;12.012;2023-11-19T03:42:56;100825.91;;;-0.98;100.00
19600;BME280;9947;57.722;12.012;2023-11-19T03:45:23;100820.75;;;-1.02;100.00
19600;BME280;9947;57.722;12.012;2023-11-19T03:47:52;100811.88;;;-1.01;100.00
19600;BME280;9947;57.722;12.012;2023-11-19T03:50:19;100807.25;;;-0.95;100.00
19600;BME280;9947;57.722;12.012;2023-11-19T03:52:46;100815.34;;;-0.99;100.00
19600;BME280;9947;57.722;12.012;2023-11-19T03:55:15;100803.91;;;-1.01;100.00
19600;BME280;9947;57.722;12.012;2023-11-19T03:57:45;100796.81;;;-1.01;100.00
19600;BME280;9947;57.722;12.012;2023-11-19T04:00:14;100795.81;;;-0.97;100.00
19600;BME280;9947;57.722;12.012;2023-11-19T04:02:41;100786.88;;;-0.94;100.00
19600;BME280;9947;57.722;12.012;2023-11-19T04:05:11;100783.56;;;-1.01;100.00
19600;BME280;9947;57.722;12.012;2023-11-19T04:07:38;100786.16;;;-0.99;100.00
19600;BME280;9947;57.722;12.012;2023-11-19T04:10:06;100773.75;;;-0.99;100.00
19600;BME280;9947;57.722;12.012;2023-11-19T04:12:35;100771.09;;;-0.99;100.00
19600;BME280;9947;57.722;12.012;2023-11-19T04:15:11;100759.47;;;-0.95;100.00
19600;BME280;9947;57.722;12.012;2023-11-19T04:17:38;100762.97;;;-0.93;100.00
19600;BME280;9947;57.722;12.012;2023-11-19T04:20:06;100759.47;;;-0.95;100.00
19600;BME280;9947;57.722;12.012;2023-11-19T04:22:42;100766.53;;;-0.94;100.00
19600;BME280;9947;57.722;12.012;2023-11-19T04:25:09;100765.66;;;-0.94;100.00
19600;BME280;9947;57.722;12.012;2023-11-19T04:27:37;100761.19;;;-0.92;100.00
19600;BME280;9947;57.722;12.012;2023-11-19T04:30:06;100761.94;;;-0.88;100.00
19600;BME280;9947;57.722;12.012;2023-11-19T04:32:37;100767.34;;;-0.91;100.00
19600;BME280;9947;57.722;12.012;2023-11-19T04:35:07;100751.28;;;-0.87;100.00
19600;BME280;9947;57.722;12.012;2023-11-19T04:37:35;100755.69;;;-0.86;100.00
19600;BME280;9947;57.722;12.012;2023-11-19T04:40:05;100755.69;;;-0.86;100.00
19600;BME280;9947;57.722;12.012;2023-11-19T04:42:32;100753.94;;;-0.87;100.00
19600;BME280;9947;57.722;12.012;2023-11-19T04:45:00;100748.59;;;-0.85;100.00
19600;BME280;9947;57.722;12.012;2023-11-19T04:47:27;100745.88;;;-0.84;100.00
19600;BME280;9947;57.722;12.012;2023-11-19T04:49:54;100747.66;;;-0.84;100.00
19600;BME280;9947;57.722;12.012;2023-11-19T04:52:22;100749.44;;;-0.85;100.00
19600;BME280;9947;57.722;12.012;2023-11-19T04:54:50;100738.69;;;-0.80;100.00
19600;BME280;9947;57.722;12.012;2023-11-19T04:57:20;100737.81;;;-0.81;100.00
19600;BME280;9947;57.722;12.012;2023-11-19T04:59:47;100738.06;;;-0.88;100.00
19600;BME280;9947;57.722;12.012;2023-11-19T05:02:15;100731.66;;;-0.81;100.00
19600;BME280;9947;57.722;12.012;2023-11-19T05:04:42;100729.81;;;-0.79;100.00
19600;BME280;9947;57.722;12.012;2023-11-19T05:07:09;100734.22;;;-0.78;100.00
19600;BME280;9947;57.722;12.012;2023-11-19T05:09:36;100724.56;;;-0.81;100.00
19600;BME280;9947;57.722;12.012;2023-11-19T05:12:04;100730.94;;;-0.86;100.00
19600;BME280;9947;57.722;12.012;2023-11-19T05:14:37;100725.44;;;-0.80;100.00
19600;BME280;9947;57.722;12.012;2023-11-19T05:17:05;100724.50;;;-0.79;100.00
19600;BME280;9947;57.722;12.012;2023-11-19T05:19:35;100722.81;;;-0.82;100.00
19600;BME280;9947;57.722;12.012;2023-11-19T05:22:02;100720.78;;;-0.72;100.00
19600;BME280;9947;57.722;12.012;2023-11-19T05:24:31;100723.59;;;-0.78;100.00
19600;BME280;9947;57.722;12.012;2023-11-19T05:26:58;100721.84;;;-0.78;100.00
19600;BME280;9947;57.722;12.012;2023-11-19T05:29:26;100727.97;;;-0.76;100.00
19600;BME280;9947;57.722;12.012;2023-11-19T05:31:56;100720.69;;;-0.69;100.00
19600;BME280;9947;57.722;12.012;2023-11-19T05:34:24;100722.63;;;-0.74;100.00
19600;BME280;9947;57.722;12.012;2023-11-19T05:36:51;100721.41;;;-0.64;100.00
19600;BME280;9947;57.722;12.012;2023-11-19T05:39:19;100724.16;;;-0.67;100.00
19600;BME280;9947;57.722;12.012;2023-11-19T05:41:46;100719.03;;;-0.73;100.00
19600;BME280;9947;57.722;12.012;2023-11-19T05:44:13;100731.25;;;-0.68;100.00
19600;BME280;9947;57.722;12.012;2023-11-19T05:46:41;100724.63;;;-0.54;100.00
19600;BME280;9947;57.722;12.012;2023-11-19T05:49:15;100723.84;;;-0.58;100.00
19600;BME280;9947;57.722;12.012;2023-11-19T05:51:42;100719.31;;;-0.54;100.00
19600;BME280;9947;57.722;12.012;2023-11-19T05:54:09;100725.22;;;-0.45;100.00
19600;BME280;9947;57.722;12.012;2023-11-19T05:56:36;100706.84;;;-0.51;100.00
19600;BME280;9947;57.722;12.012;2023-11-19T05:59:03;100712.66;;;-0.40;100.00
19600;BME280;9947;57.722;12.012;2023-11-19T06:01:34;100709.97;;;-0.38;100.00
19600;BME280;9947;57.722;12.012;2023-11-19T06:04:02;100700.09;;;-0.35;100.00
19600;BME280;9947;57.722;12.012;2023-11-19T06:06:32;100697.28;;;-0.30;100.00
19600;BME280;9947;57.722;12.012;2023-11-19T06:08:59;100703.56;;;-0.33;100.00
19600;BME280;9947;57.722;12.012;2023-11-19T06:11:32;100712.41;;;-0.32;100.00
19600;BME280;9947;57.722;12.012;2023-11-19T06:13:59;100709.91;;;-0.37;100.00
19600;BME280;9947;57.722;12.012;2023-11-19T06:16:26;100707.97;;;-0.32;100.00
19600;BME280;9947;57.722;12.012;2023-11-19T06:18:55;100706.88;;;-0.24;100.00
19600;BME280;9947;57.722;12.012;2023-11-19T06:21:22;100706.13;;;-0.29;100.00
19600;BME280;9947;57.722;12.012;2023-11-19T06:23:53;100705.84;;;-0.20;100.00
19600;BME280;9947;57.722;12.012;2023-11-19T06:26:23;100712.41;;;-0.32;100.00
19600;BME280;9947;57.722;12.012;2023-11-19T06:28:52;100708.00;;;-0.33;100.00
19600;BME280;9947;57.722;12.012;2023-11-19T06:31:20;100704.53;;;-0.35;100.00
19600;BME280;9947;57.722;12.012;2023-11-19T06:33:49;100700.16;;;-0.36;100.00
19600;BME280;9947;57.722;12.012;2023-11-19T06:36:18;100699.22;;;-0.35;100.00
19600;BME280;9947;57.722;12.012;2023-11-19T06:38:45;100703.56;;;-0.33;100.00
19600;BME280;9947;57.722;12.012;2023-11-19T06:41:14;100714.19;;;-0.33;100.00
19600;BME280;9947;57.722;12.012;2023-11-19T06:43:41;100693.66;;;-0.27;100.00
19600;BME280;9947;57.722;12.012;2023-11-19T06:46:20;100702.41;;;-0.24;100.00
19600;BME280;9947;57.722;12.012;2023-11-19T06:48:49;100696.25;;;-0.24;100.00
19600;BME280;9947;57.722;12.012;2023-11-19T06:51:16;100692.72;;;-0.26;100.00
19600;BME280;9947;57.722;12.012;2023-11-19T06:53:44;100690.00;;;-0.23;100.00
19600;BME280;9947;57.722;12.012;2023-11-19T06:56:20;100693.59;;;-0.24;100.00
19600;BME280;9947;57.722;12.012;2023-11-19T06:58:48;100688.88;;;-0.16;100.00
19600;BME280;9947;57.722;12.012;2023-11-19T07:01:18;100686.28;;;-0.18;100.00
19600;BME280;9947;57.722;12.012;2023-11-19T07:03:45;100685.34;;;-0.17;100.00
19600;BME280;9947;57.722;12.012;2023-11-19T07:06:13;100690.72;;;-0.18;100.00
19600;BME280;9947;57.722;12.012;2023-11-19T07:08:41;100674.56;;;-0.12;100.00
19600;BME280;9947;57.722;12.012;2023-11-19T07:11:10;100678.97;;;-0.11;100.00
19600;BME280;9947;57.722;12.012;2023-11-19T07:13:40;100668.97;;;-0.05;100.00
19600;BME280;9947;57.722;12.012;2023-11-19T07:16:07;100671.59;;;-0.03;100.00
19600;BME280;9947;57.722;12.012;2023-11-19T07:18:36;100663.41;;;0.03;100.00
19600;BME280;9947;57.722;12.012;2023-11-19T07:21:05;100673.25;;;0.01;100.00
19600;BME280;9947;57.722;12.012;2023-11-19T07:23:35;100650.13;;;0.03;100.00
19600;BME280;9947;57.722;12.012;2023-11-19T07:26:05;100663.31;;;0.06;100.00
19600;BME280;9947;57.722;12.012;2023-11-19T07:28:34;100657.88;;;0.09;100.00
19600;BME280;9947;57.722;12.012;2023-11-19T07:31:04;100656.16;;;0.08;100.00
19600;BME280;9947;57.722;12.012;2023-11-19T07:33:33;100648.13;;;0.10;100.00
19600;BME280;9947;57.722;12.012;2023-11-19T07:36:03;100645.47;;;0.10;100.00
19600;BME280;9947;57.722;12.012;2023-11-19T07:38:33;100647.91;;;0.16;100.00
19600;BME280;9947;57.722;12.012;2023-11-19T07:41:01;100635.41;;;0.18;100.00
19600;BME280;9947;57.722;12.012;2023-11-19T07:43:29;100625.88;;;0.12;100.00
19600;BME280;9947;57.722;12.012;2023-11-19T07:45:57;100637.03;;;0.22;100.00
19600;BME280;9947;57.722;12.012;2023-11-19T07:48:30;100622.06;;;0.19;100.00
19600;BME280;9947;57.722;12.012;2023-11-19T07:50:57;100628.09;;;0.24;100.00
19600;BME280;9947;57.722;12.012;2023-11-19T07:53:25;100627.06;;;0.28;100.00
19600;BME280;9947;57.722;12.012;2023-11-19T07:55:52;100612.91;;;0.28;100.00
19600;BME280;9947;57.722;12.012;2023-11-19T07:58:20;100615.56;;;0.28;100.00
19600;BME280;9947;57.722;12.012;2023-11-19T08:00:49;100616.38;;;0.30;100.00
19600;BME280;9947;57.722;12.012;2023-11-19T08:03:19;100619.16;;;0.27;100.00
19600;BME280;9947;57.722;12.012;2023-11-19T08:05:50;100606.50;;;0.34;100.00
19600;BME280;9947;57.722;12.012;2023-11-19T08:08:19;100621.41;;;0.38;100.00
19600;BME280;9947;57.722;12.012;2023-11-19T08:10:46;100618.56;;;0.42;100.00
19600;BME280;9947;57.722;12.012;2023-11-19T08:13:14;100622.00;;;0.46;100.00
19600;BME280;9947;57.722;12.012;2023-11-19T08:15:42;100621.56;;;0.58;100.00
19600;BME280;9947;57.722;12.012;2023-11-19T08:18:08;100617.84;;;0.62;100.00
19600;BME280;9947;57.722;12.012;2023-11-19T08:20:35;100608.00;;;0.64;100.00
19600;BME280;9947;57.722;12.012;2023-11-19T08:23:07;100611.59;;;0.63;100.00
19600;BME280;9947;57.722;12.012;2023-11-19T08:25:36;100599.72;;;0.72;100.00
19600;BME280;9947;57.722;12.012;2023-11-19T08:28:04;100598.81;;;0.73;100.00
19600;BME280;9947;57.722;12.012;2023-11-19T08:30:31;100594.28;;;0.75;100.00
19600;BME280;9947;57.722;12.012;2023-11-19T08:32:59;100594.94;;;0.81;100.00
19600;BME280;9947;57.722;12.012;2023-11-19T08:35:28;100598.41;;;0.83;100.00
19600;BME280;9947;57.722;12.012;2023-11-19T08:37:56;100581.19;;;0.92;100.00
19600;BME280;9947;57.722;12.012;2023-11-19T08:40:25;100574.34;;;0.86;100.00
19600;BME280;9947;57.722;12.012;2023-11-19T08:42:52;100571.28;;;0.96;100.00
19600;BME280;9947;57.722;12.012;2023-11-19T08:45:21;100565.16;;;0.93;100.00
19600;BME280;9947;57.722;12.012;2023-11-19T08:47:48;100566.09;;;0.92;100.00
19600;BME280;9947;57.722;12.012;2023-11-19T08:50:15;100560.53;;;0.99;100.00
19600;BME280;9947;57.722;12.012;2023-11-19T08:52:42;100561.56;;;0.95;100.00
19600;BME280;9947;57.722;12.012;2023-11-19T08:55:10;100556.13;;;0.98;100.00
19600;BME280;9947;57.722;12.012;2023-11-19T08:57:41;100555.88;;;1.04;100.00
19600;BME280;9947;57.722;12.012;2023-11-19T09:00:09;100553.97;;;1.07;100.00
19600;BME280;9947;57.722;12.012;2023-11-19T09:02:40;100559.91;;;1.14;100.00
19600;BME280;9947;57.722;12.012;2023-11-19T09:05:08;100538.50;;;1.17;100.00
19600;BME280;9947;57.722;12.012;2023-11-19T09:07:35;100540.09;;;1.21;100.00
19600;BME280;9947;57.722;12.012;2023-11-19T09:10:04;100543.41;;;1.26;100.00
19600;BME280;9947;57.722;12.012;2023-11-19T09:12:34;100537.59;;;1.38;100.00
19600;BME280;9947;57.722;12.012;2023-11-19T09:15:02;100534.28;;;1.33;100.00
19600;BME280;9947;57.722;12.012;2023-11-19T09:17:29;100533.22;;;1.37;100.00
19600;BME280;9947;57.722;12.012;2023-11-19T09:19:57;100524.94;;;1.43;100.00
19600;BME280;9947;57.722;12.012;2023-11-19T09:22:24;100522.34;;;1.42;100.00
19600;BME280;9947;57.722;12.012;2023-11-19T09:24:56;100519.41;;;1.48;100.00
19600;BME280;9947;57.722;12.012;2023-11-19T09:27:25;100517.63;;;1.48;100.00
19600;BME280;9947;57.722;12.012;2023-11-19T09:29:52;100515.88;;;1.47;100.00
19600;BME280;9947;57.722;12.012;2023-11-19T09:32:24;100517.09;;;1.40;100.00
19600;BME280;9947;57.722;12.012;2023-11-19T09:34:52;100514.44;;;1.40;100.00
19600;BME280;9947;57.722;12.012;2023-11-19T09:37:19;100514.50;;;1.39;100.00
19600;BME280;9947;57.722;12.012;2023-11-19T09:39:46;100513.88;;;1.52;100.00
19600;BME280;9947;57.722;12.012;2023-11-19T09:42:14;100518.34;;;1.52;100.00
19600;BME280;9947;57.722;12.012;2023-11-19T09:44:42;100513.44;;;1.43;100.00
19600;BME280;9947;57.722;12.012;2023-11-19T09:47:10;100513.66;;;1.59;100.00
19600;BME280;9947;57.722;12.012;2023-11-19T09:49:40;100512.03;;;1.54;100.00
19600;BME280;9947;57.722;12.012;2023-11-19T09:52:09;100512.78;;;1.58;100.00
19600;BME280;9947;57.722;12.012;2023-11-19T09:54:36;100502.38;;;1.72;100.00
19600;BME280;9947;57.722;12.012;2023-11-19T09:57:04;100495.97;;;1.76;100.00
19600;BME280;9947;57.722;12.012;2023-11-19T09:59:34;100482.13;;;1.89;100.00
19600;BME280;9947;57.722;12.012;2023-11-19T10:02:02;100471.44;;;1.89;100.00
19600;BME280;9947;57.722;12.012;2023-11-19T10:04:35;100467.13;;;2.05;100.00
19600;BME280;9947;57.722;12.012;2023-11-19T10:07:05;100467.34;;;2.00;100.00
19600;BME280;9947;57.722;12.012;2023-11-19T10:09:32;100451.34;;;2.00;100.00
19600;BME280;9947;57.722;12.012;2023-11-19T10:11:59;100449.22;;;2.08;100.00
19600;BME280;9947;57.722;12.012;2023-11-19T10:14:27;100438.59;;;2.07;100.00
19600;BME280;9947;57.722;12.012;2023-11-19T10:16:56;100436.88;;;2.06;100.00
19600;BME280;9947;57.722;12.012;2023-11-19T10:19:24;100416.63;;;2.21;100.00
19600;BME280;9947;57.722;12.012;2023-11-19T10:21:52;100412.00;;;2.24;100.00
19600;BME280;9947;57.722;12.012;2023-11-19T10:24:32;100414.44;;;2.29;100.00
19600;BME280;9947;57.722;12.012;2023-11-19T10:27:00;100406.38;;;2.30;100.00
19600;BME280;9947;57.722;12.012;2023-11-19T10:29:29;100401.19;;;2.27;100.00
19600;BME280;9947;57.722;12.012;2023-11-19T10:31:58;100402.06;;;2.28;100.00
19600;BME280;9947;57.722;12.012;2023-11-19T10:34:26;100407.84;;;2.19;100.00
19600;BME280;9947;57.722;12.012;2023-11-19T10:36:54;100390.53;;;2.27;100.00
19600;BME280;9947;57.722;12.012;2023-11-19T10:39:22;100394.06;;;2.28;100.00
19600;BME280;9947;57.722;12.012;2023-11-19T10:41:51;100391.91;;;2.36;100.00
19600;BME280;9947;57.722;12.012;2023-11-19T10:44:33;100383.91;;;2.36;100.00
19600;BME280;9947;57.722;12.012;2023-11-19T10:47:01;100387.56;;;2.33;100.00
19600;BME280;9947;57.722;12.012;2023-11-19T10:49:28;100382.44;;;2.29;100.00
19600;BME280;9947;57.722;12.012;2023-11-19T10:51:57;100380.56;;;2.31;100.00
19600;BME280;9947;57.722;12.012;2023-11-19T10:54:26;100380.56;;;2.31;100.00
19600;BME280;9947;57.722;12.012;2023-11-19T10:56:59;100375.16;;;2.32;100.00
19600;BME280;9947;57.722;12.012;2023-11-19T10:59:31;100380.00;;;2.43;100.00
19600;BME280;9947;57.722;12.012;2023-11-19T11:02:03;100372.78;;;2.45;100.00
19600;BME280;9947;57.722;12.012;2023-11-19T11:04:33;100365.25;;;2.53;100.00
19600;BME280;9947;57.722;12.012;2023-11-19T11:07:09;100371.88;;;2.63;100.00
19600;BME280;9947;57.722;12.012;2023-11-19T11:09:38;100370.16;;;2.62;100.00
19600;BME280;9947;57.722;12.012;2023-11-19T11:12:21;100361.28;;;2.62;100.00
19600;BME280;9947;57.722;12.012;2023-11-19T11:14:50;100360.69;;;2.55;100.00
19600;BME280;9947;57.722;12.012;2023-11-19T11:19:45;100360.53;;;2.58;100.00
19600;BME280;9947;57.722;12.012;2023-11-19T11:22:15;100370.44;;;2.56;100.00
19600;BME280;9947;57.722;12.012;2023-11-19T11:25:01;100367.31;;;2.65;100.00
19600;BME280;9947;57.722;12.012;2023-11-19T11:27:57;100360.56;;;2.75;100.00
19600;BME280;9947;57.722;12.012;2023-11-19T11:30:39;100357.44;;;2.67;100.00
19600;BME280;9947;57.722;12.012;2023-11-19T11:33:23;100360.25;;;2.64;100.00
19600;BME280;9947;57.722;12.012;2023-11-19T11:36:07;100349.34;;;2.69;100.00
19600;BME280;9947;57.722;12.012;2023-11-19T11:38:40;100351.06;;;2.70;100.00
19600;BME280;9947;57.722;12.012;2023-11-19T11:41:19;100342.81;;;2.74;100.00
19600;BME280;9947;57.722;12.012;2023-11-19T11:43:51;100344.88;;;2.69;100.00
19600;BME280;9947;57.722;12.012;2023-11-19T11:46:54;100341.88;;;2.75;100.00
19600;BME280;9947;57.722;12.012;2023-11-19T11:49:27;100342.81;;;2.74;100.00
19600;BME280;9947;57.722;12.012;2023-11-19T11:52:03;100339.84;;;2.81;100.00
19600;BME280;9947;57.722;12.012;2023-11-19T11:54:41;100323.91;;;2.79;100.00
19600;BME280;9947;57.722;12.012;2023-11-19T11:57:09;100314.94;;;2.80;100.00
19600;BME280;9947;57.722;12.012;2023-11-19T11:59:51;100317.88;;;2.75;100.00
19600;BME280;9947;57.722;12.012;2023-11-19T12:02:20;100310.19;;;2.87;100.00
19600;BME280;9947;57.722;12.012;2023-11-19T12:04:49;100304.69;;;2.90;100.00
19600;BME280;9947;57.722;12.012;2023-11-19T12:07:18;100306.09;;;2.97;100.00
19600;BME280;9947;57.722;12.012;2023-11-19T12:09:52;100298.78;;;3.00;100.00
19600;BME280;9947;57.722;12.012;2023-11-19T12:12:27;100296.19;;;2.99;100.00
19600;BME280;9947;57.722;12.012;2023-11-19T12:15:21;100292.63;;;3.16;100.00
19600;BME280;9947;57.722;12.012;2023-11-19T12:17:52;100282.34;;;3.08;100.00
19600;BME280;9947;57.722;12.012;2023-11-19T12:20:22;100284.19;;;3.23;100.00
19600;BME280;9947;57.722;12.012;2023-11-19T12:22:50;100270.84;;;3.23;100.00
19600;BME280;9947;57.722;12.012;2023-11-19T12:25:18;100273.94;;;3.16;100.00
19600;BME280;9947;57.722;12.012;2023-11-19T12:27:47;100270.84;;;3.23;100.00
19600;BME280;9947;57.722;12.012;2023-11-19T12:30:17;100263.09;;;3.34;100.00
19600;BME280;9947;57.722;12.012;2023-11-19T12:32:53;100261.28;;;3.35;100.00
19600;BME280;9947;57.722;12.012;2023-11-19T12:35:22;100246.75;;;3.56;100.00
19600;BME280;9947;57.722;12.012;2023-11-19T12:37:51;100239.34;;;3.46;100.00
19600;BME280;9947;57.722;12.012;2023-11-19T12:40:21;100239.25;;;3.47;100.00
19600;BME280;9947;57.722;12.012;2023-11-19T12:42:55;100232.00;;;3.49;100.00
19600;BME280;9947;57.722;12.012;2023-11-19T12:45:24;100232.88;;;3.50;100.00
19600;BME280;9947;57.722;12.012;2023-11-19T12:48:04;100226.25;;;3.41;100.00
19600;BME280;9947;57.722;12.012;2023-11-19T12:50:50;100223.13;;;3.49;100.00
19600;BME280;9947;57.722;12.012;2023-11-19T12:53:17;100219.69;;;3.47;100.00
19600;BME280;9947;57.722;12.012;2023-11-19T12:56:07;100221.94;;;3.54;100.00
19600;BME280;9947;57.722;12.012;2023-11-19T12:58:35;100211.31;;;3.53;100.00
19600;BME280;9947;57.722;12.012;2023-11-19T13:01:06;100207.88;;;3.51;100.00